sensor_id;sensor_type;location;lat;lon;timestamp;temperature;humidity
19050;DHT22;9657;45.940;12.840;2023-03-14T00:00:51;15.50;68.50
19050;DHT22;9657;45.940;12.840;2023-03-14T00:03:18;15.50;68.50
19050;DHT22;9657;45.940;12.840;2023-03-14T00:05:45;15.50;68.50
19050;DHT22;9657;45.940;12.840;2023-03-14T00:08:12;15.50;68.50
19050;DHT22;9657;45.940;12.840;2023-03-14T00:10:39;15.50;68.50
19050;DHT22;9657;45.940;12.840;2023-03-14T00:13:06;15.50;68.50
19050;DHT22;9657;45.940;12.840;2023-03-14T00:15:35;15.50;68.50
19050;DHT22;9657;45.940;12.840;2023-03-14T00:18:02;15.50;68.50
19050;DHT22;9657;45.940;12.840;2023-03-14T00:20:29;15.50;68.50
19050;DHT22;9657;45.940;12.840;2023-03-14T00:22:56;15.50;68.50
19050;DHT22;9657;45.940;12.840;2023-03-14T00:25:23;15.50;68.50
19050;DHT22;9657;45.940;12.840;2023-03-14T00:27:50;15.50;68.50
19050;DHT22;9657;45.940;12.840;2023-03-14T00:30:18;15.50;68.50
19050;DHT22;9657;45.940;12.840;2023-03-14T00:32:46;15.50;68.50
19050;DHT22;9657;45.940;12.840;2023-03-14T00:35:13;15.50;68.50
19050;DHT22;9657;45.940;12.840;2023-03-14T00:37:41;15.50;68.50
19050;DHT22;9657;45.940;12.840;2023-03-14T00:40:09;15.50;68.50
19050;DHT22;9657;45.940;12.840;2023-03-14T00:42:36;15.50;68.50
19050;DHT22;9657;45.940;12.840;2023-03-14T00:45:04;15.50;68.50
19050;DHT22;9657;45.940;12.840;2023-03-14T00:47:33;15.50;68.50
19050;DHT22;9657;45.940;12.840;2023-03-14T00:50:01;15.50;68.50
19050;DHT22;9657;45.940;12.840;2023-03-14T00:52:28;15.50;68.50
19050;DHT22;9657;45.940;12.840;2023-03-14T00:54:55;15.50;68.50
19050;DHT22;9657;45.940;12.840;2023-03-14T00:57:22;15.50;68.40
19050;DHT22;9657;45.940;12.840;2023-03-14T00:59:50;15.50;68.50
19050;DHT22;9657;45.940;12.840;2023-03-14T01:02:18;15.50;68.50
19050;DHT22;9657;45.940;12.840;2023-03-14T01:04:47;15.50;68.50
19050;DHT22;9657;45.940;12.840;2023-03-14T01:07:15;15.50;68.50
19050;DHT22;9657;45.940;12.840;2023-03-14T01:09:42;15.50;68.40
19050;DHT22;9657;45.940;12.840;2023-03-14T01:12:09;15.50;68.50
19050;DHT22;9657;45.940;12.840;2023-03-14T01:14:36;15.50;68.50
19050;DHT22;9657;45.940;12.840;2023-03-14T01:17:03;15.50;68.40
19050;DHT22;9657;45.940;12.840;2023-03-14T01:19:30;15.50;68.40
19050;DHT22;9657;45.940;12.840;2023-03-14T01:21:57;15.50;68.40
19050;DHT22;9657;45.940;12.840;2023-03-14T01:24:26;15.50;68.40
19050;DHT22;9657;45.940;12.840;2023-03-14T01:26:53;15.50;68.50
19050;DHT22;9657;45.940;12.840;2023-03-14T01:29:20;15.50;68.50
19050;DHT22;9657;45.940;12.840;2023-03-14T01:31:47;15.50;68.50
19050;DHT22;9657;45.940;12.840;2023-03-14T01:34:14;15.50;68.50
19050;DHT22;9657;45.940;12.840;2023-03-14T01:36:41;15.50;68.50
19050;DHT22;9657;45.940;12.840;2023-03-14T01:39:08;15.50;68.50
19050;DHT22;9657;45.940;12.840;2023-03-14T01:41:36;15.50;68.50
19050;DHT22;9657;45.940;12.840;2023-03-14T01:44:03;15.50;68.50
19050;DHT22;9657;45.940;12.840;2023-03-14T01:46:38;15.50;68.50
19050;DHT22;9657;45.940;12.840;2023-03-14T01:49:17;15.50;68.50
19050;DHT22;9657;45.940;12.840;2023-03-14T01:51:51;15.50;68.50
19050;DHT22;9657;45.940;12.840;2023-03-14T01:54:21;15.50;68.50
19050;DHT22;9657;45.940;12.840;2023-03-14T01:56:55;15.50;68.50
19050;DHT22;9657;45.940;12.840;2023-03-14T01:59:24;15.50;68.50
19050;DHT22;9657;45.940;12.840;2023-03-14T02:04:30;15.50;68.50
19050;DHT22;9657;45.940;12.840;2023-03-14T02:07:02;15.50;68.50
19050;DHT22;9657;45.940;12.840;2023-03-14T02:09:32;15.50;68.50
19050;DHT22;9657;45.940;12.840;2023-03-14T02:12:00;15.50;68.50
19050;DHT22;9657;45.940;12.840;2023-03-14T02:14:31;15.50;68.50
19050;DHT22;9657;45.940;12.840;2023-03-14T02:17:00;15.50;68.50
19050;DHT22;9657;45.940;12.840;2023-03-14T02:19:40;15.50;68.50
19050;DHT22;9657;45.940;12.840;2023-03-14T02:22:13;15.50;68.60
19050;DHT22;9657;45.940;12.840;2023-03-14T02:24:45;15.50;68.50
19050;DHT22;9657;45.940;12.840;2023-03-14T02:27:15;15.50;68.50
19050;DHT22;9657;45.940;12.840;2023-03-14T02:29:49;15.50;68.60
19050;DHT22;9657;45.940;12.840;2023-03-14T02:32:18;15.40;68.50
19050;DHT22;9657;45.940;12.840;2023-03-14T02:34:49;15.50;68.50
19050;DHT22;9657;45.940;12.840;2023-03-14T02:37:18;15.50;68.50
19050;DHT22;9657;45.940;12.840;2023-03-14T02:39:46;15.50;68.60
19050;DHT22;9657;45.940;12.840;2023-03-14T02:42:16;15.50;68.50
19050;DHT22;9657;45.940;12.840;2023-03-14T02:44:51;15.50;68.50
19050;DHT22;9657;45.940;12.840;2023-03-14T02:47:21;15.50;68.60
19050;DHT22;9657;45.940;12.840;2023-03-14T02:49:53;15.50;68.50
19050;DHT22;9657;45.940;12.840;2023-03-14T02:52:21;15.50;68.60
19050;DHT22;9657;45.940;12.840;2023-03-14T02:54:48;15.50;68.50
19050;DHT22;9657;45.940;12.840;2023-03-14T02:57:16;15.50;68.60
19050;DHT22;9657;45.940;12.840;2023-03-14T02:59:43;15.40;68.50
19050;DHT22;9657;45.940;12.840;2023-03-14T03:02:10;15.50;68.60
19050;DHT22;9657;45.940;12.840;2023-03-14T03:04:37;15.50;68.50
19050;DHT22;9657;45.940;12.840;2023-03-14T03:07:04;15.50;68.50
19050;DHT22;9657;45.940;12.840;2023-03-14T03:09:31;15.50;68.60
19050;DHT22;9657;45.940;12.840;2023-03-14T03:11:58;15.50;68.60
19050;DHT22;9657;45.940;12.840;2023-03-14T03:14:26;15.50;68.60
19050;DHT22;9657;45.940;12.840;2023-03-14T03:16:53;15.50;68.60
19050;DHT22;9657;45.940;12.840;2023-03-14T03:19:20;15.50;68.60
19050;DHT22;9657;45.940;12.840;2023-03-14T03:21:47;15.50;68.60
19050;DHT22;9657;45.940;12.840;2023-03-14T03:24:14;15.50;68.60
19050;DHT22;9657;45.940;12.840;2023-03-14T03:26:41;15.50;68.60
19050;DHT22;9657;45.940;12.840;2023-03-14T03:29:08;15.40;68.50
19050;DHT22;9657;45.940;12.840;2023-03-14T03:31:38;15.50;68.60
19050;DHT22;9657;45.940;12.840;2023-03-14T03:34:05;15.50;68.60
19050;DHT22;9657;45.940;12.840;2023-03-14T03:36:32;15.40;68.60
19050;DHT22;9657;45.940;12.840;2023-03-14T03:38:59;15.50;68.60
19050;DHT22;9657;45.940;12.840;2023-03-14T03:41:26;15.50;68.60
19050;DHT22;9657;45.940;12.840;2023-03-14T03:43:53;15.40;68.60
19050;DHT22;9657;45.940;12.840;2023-03-14T03:46:20;15.40;68.50
19050;DHT22;9657;45.940;12.840;2023-03-14T03:48:48;15.50;68.60
19050;DHT22;9657;45.940;12.840;2023-03-14T03:51:20;15.40;68.60
19050;DHT22;9657;45.940;12.840;2023-03-14T03:53:47;15.50;68.60
19050;DHT22;9657;45.940;12.840;2023-03-14T03:56:14;15.40;68.50
19050;DHT22;9657;45.940;12.840;2023-03-14T03:58:41;15.40;68.60
19050;DHT22;9657;45.940;12.840;2023-03-14T04:01:09;15.50;68.60
19050;DHT22;9657;45.940;12.840;2023-03-14T04:03:37;15.50;68.60
19050;DHT22;9657;45.940;12.840;2023-03-14T04:06:07;15.40;68.60
19050;DHT22;9657;45.940;12.840;2023-03-14T04:08:35;15.50;68.60
19050;DHT22;9657;45.940;12.840;2023-03-14T04:11:03;15.40;68.60
19050;DHT22;9657;45.940;12.840;2023-03-14T04:13:30;15.40;68.60
19050;DHT22;9657;45.940;12.840;2023-03-14T04:15:57;15.40;67.80
19050;DHT22;9657;45.940;12.840;2023-03-14T04:18:25;15.40;68.60
19050;DHT22;9657;45.940;12.840;2023-03-14T04:20:52;15.40;68.60
19050;DHT22;9657;45.940;12.840;2023-03-14T04:23:22;15.40;68.60
19050;DHT22;9657;45.940;12.840;2023-03-14T04:25:55;15.40;68.60
19050;DHT22;9657;45.940;12.840;2023-03-14T04:28:22;15.40;68.60
19050;DHT22;9657;45.940;12.840;2023-03-14T04:30:49;15.40;68.60
19050;DHT22;9657;45.940;12.840;2023-03-14T04:33:16;15.40;68.60
19050;DHT22;9657;45.940;12.840;2023-03-14T04:35:43;15.40;68.60
19050;DHT22;9657;45.940;12.840;2023-03-14T04:38:10;15.40;68.60
19050;DHT22;9657;45.940;12.840;2023-03-14T04:40:39;15.40;68.60
19050;DHT22;9657;45.940;12.840;2023-03-14T04:43:07;15.40;68.60
19050;DHT22;9657;45.940;12.840;2023-03-14T04:45:35;15.40;68.60
19050;DHT22;9657;45.940;12.840;2023-03-14T04:48:02;15.40;68.60
19050;DHT22;9657;45.940;12.840;2023-03-14T04:50:29;15.40;68.60
19050;DHT22;9657;45.940;12.840;2023-03-14T04:52:56;15.40;68.60
19050;DHT22;9657;45.940;12.840;2023-03-14T04:55:23;15.40;68.60
19050;DHT22;9657;45.940;12.840;2023-03-14T04:57:51;15.40;68.60
19050;DHT22;9657;45.940;12.840;2023-03-14T05:00:18;15.40;68.60
19050;DHT22;9657;45.940;12.840;2023-03-14T05:02:45;15.40;68.60
19050;DHT22;9657;45.940;12.840;2023-03-14T05:05:12;15.40;68.60
19050;DHT22;9657;45.940;12.840;2023-03-14T05:07:39;15.40;68.60
19050;DHT22;9657;45.940;12.840;2023-03-14T05:10:07;15.40;68.60
19050;DHT22;9657;45.940;12.840;2023-03-14T05:12:34;15.40;68.60
19050;DHT22;9657;45.940;12.840;2023-03-14T05:15:03;15.40;68.60
19050;DHT22;9657;45.940;12.840;2023-03-14T05:17:32;15.40;68.60
19050;DHT22;9657;45.940;12.840;2023-03-14T05:19:59;15.40;68.60
19050;DHT22;9657;45.940;12.840;2023-03-14T05:22:26;15.40;68.60
19050;DHT22;9657;45.940;12.840;2023-03-14T05:24:53;15.40;68.60
19050;DHT22;9657;45.940;12.840;2023-03-14T05:27:22;15.40;68.60
19050;DHT22;9657;45.940;12.840;2023-03-14T05:29:49;15.40;69.40
19050;DHT22;9657;45.940;12.840;2023-03-14T05:32:17;15.40;68.60
19050;DHT22;9657;45.940;12.840;2023-03-14T05:34:44;15.40;68.60
19050;DHT22;9657;45.940;12.840;2023-03-14T05:37:11;15.40;68.60
19050;DHT22;9657;45.940;12.840;2023-03-14T05:39:38;15.40;68.60
19050;DHT22;9657;45.940;12.840;2023-03-14T05:42:05;15.40;68.60
19050;DHT22;9657;45.940;12.840;2023-03-14T05:44:32;15.40;68.60
19050;DHT22;9657;45.940;12.840;2023-03-14T05:46:59;15.40;68.60
19050;DHT22;9657;45.940;12.840;2023-03-14T05:49:27;15.40;68.60
19050;DHT22;9657;45.940;12.840;2023-03-14T05:51:54;15.40;68.60
19050;DHT22;9657;45.940;12.840;2023-03-14T05:54:21;15.40;68.60
19050;DHT22;9657;45.940;12.840;2023-03-14T05:56:48;15.40;68.60
19050;DHT22;9657;45.940;12.840;2023-03-14T05:59:15;15.40;68.60
19050;DHT22;9657;45.940;12.840;2023-03-14T06:01:42;15.40;68.60
19050;DHT22;9657;45.940;12.840;2023-03-14T06:04:09;15.40;68.60
19050;DHT22;9657;45.940;12.840;2023-03-14T06:06:37;15.40;68.60
19050;DHT22;9657;45.940;12.840;2023-03-14T06:09:04;15.40;68.60
19050;DHT22;9657;45.940;12.840;2023-03-14T06:11:31;15.40;68.60
19050;DHT22;9657;45.940;12.840;2023-03-14T06:13:58;15.40;68.60
19050;DHT22;9657;45.940;12.840;2023-03-14T06:16:25;15.40;68.60
19050;DHT22;9657;45.940;12.840;2023-03-14T06:18:52;15.40;68.60
19050;DHT22;9657;45.940;12.840;2023-03-14T06:21:19;15.40;68.60
19050;DHT22;9657;45.940;12.840;2023-03-14T06:23:47;15.40;68.60
19050;DHT22;9657;45.940;12.840;2023-03-14T06:26:14;15.40;68.60
19050;DHT22;9657;45.940;12.840;2023-03-14T06:28:41;15.40;68.60
19050;DHT22;9657;45.940;12.840;2023-03-14T06:31:08;15.40;68.60
19050;DHT22;9657;45.940;12.840;2023-03-14T06:33:35;15.40;68.60
19050;DHT22;9657;45.940;12.840;2023-03-14T06:36:03;15.40;68.70
19050;DHT22;9657;45.940;12.840;2023-03-14T06:38:30;15.40;68.60
19050;DHT22;9657;45.940;12.840;2023-03-14T06:41:03;15.40;68.70
19050;DHT22;9657;45.940;12.840;2023-03-14T06:43:30;15.40;68.60
19050;DHT22;9657;45.940;12.840;2023-03-14T06:45:57;15.40;68.60
19050;DHT22;9657;45.940;12.840;2023-03-14T06:48:24;15.40;68.70
19050;DHT22;9657;45.940;12.840;2023-03-14T06:50:51;15.40;68.70
19050;DHT22;9657;45.940;12.840;2023-03-14T06:53:18;15.40;68.70
19050;DHT22;9657;45.940;12.840;2023-03-14T06:55:45;15.40;68.70
19050;DHT22;9657;45.940;12.840;2023-03-14T06:58:14;15.40;68.70
19050;DHT22;9657;45.940;12.840;2023-03-14T07:00:41;15.40;68.70
19050;DHT22;9657;45.940;12.840;2023-03-14T07:03:09;15.40;68.70
19050;DHT22;9657;45.940;12.840;2023-03-14T07:05:36;15.40;68.70
19050;DHT22;9657;45.940;12.840;2023-03-14T07:08:05;15.40;68.70
19050;DHT22;9657;45.940;12.840;2023-03-14T07:10:33;15.40;68.70
19050;DHT22;9657;45.940;12.840;2023-03-14T07:13:00;15.40;68.80
19050;DHT22;9657;45.940;12.840;2023-03-14T07:15:28;15.40;68.80
19050;DHT22;9657;45.940;12.840;2023-03-14T07:17:55;15.40;68.80
19050;DHT22;9657;45.940;12.840;2023-03-14T07:20:22;15.40;68.70
19050;DHT22;9657;45.940;12.840;2023-03-14T07:22:49;15.40;68.80
19050;DHT22;9657;45.940;12.840;2023-03-14T07:25:17;15.30;68.70
19050;DHT22;9657;45.940;12.840;2023-03-14T07:27:45;15.40;68.80
19050;DHT22;9657;45.940;12.840;2023-03-14T07:30:13;15.40;68.80
19050;DHT22;9657;45.940;12.840;2023-03-14T07:32:42;15.40;68.70
19050;DHT22;9657;45.940;12.840;2023-03-14T07:35:09;15.40;68.80
19050;DHT22;9657;45.940;12.840;2023-03-14T07:37:36;15.40;68.80
19050;DHT22;9657;45.940;12.840;2023-03-14T07:40:04;15.40;68.80
19050;DHT22;9657;45.940;12.840;2023-03-14T07:42:32;15.40;69.00
19050;DHT22;9657;45.940;12.840;2023-03-14T07:44:59;15.40;69.20
19050;DHT22;9657;45.940;12.840;2023-03-14T07:47:26;15.40;69.20
19050;DHT22;9657;45.940;12.840;2023-03-14T07:49:54;15.40;69.20
19050;DHT22;9657;45.940;12.840;2023-03-14T07:52:21;15.40;69.30
19050;DHT22;9657;45.940;12.840;2023-03-14T07:54:49;15.40;69.30
19050;DHT22;9657;45.940;12.840;2023-03-14T07:57:16;15.40;69.40
19050;DHT22;9657;45.940;12.840;2023-03-14T07:59:43;15.40;69.50
19050;DHT22;9657;45.940;12.840;2023-03-14T08:02:10;15.40;69.60
19050;DHT22;9657;45.940;12.840;2023-03-14T08:04:38;15.40;69.70
19050;DHT22;9657;45.940;12.840;2023-03-14T08:07:07;15.40;69.80
19050;DHT22;9657;45.940;12.840;2023-03-14T08:09:34;15.40;69.80
19050;DHT22;9657;45.940;12.840;2023-03-14T08:12:01;15.40;70.00
19050;DHT22;9657;45.940;12.840;2023-03-14T08:14:28;15.40;70.10
19050;DHT22;9657;45.940;12.840;2023-03-14T08:16:56;15.40;70.20
19050;DHT22;9657;45.940;12.840;2023-03-14T08:19:23;15.40;70.10
19050;DHT22;9657;45.940;12.840;2023-03-14T08:21:50;15.40;70.50
19050;DHT22;9657;45.940;12.840;2023-03-14T08:24:19;15.40;70.40
19050;DHT22;9657;45.940;12.840;2023-03-14T08:26:46;15.40;70.40
19050;DHT22;9657;45.940;12.840;2023-03-14T08:29:13;15.40;70.50
19050;DHT22;9657;45.940;12.840;2023-03-14T08:31:40;15.40;70.50
19050;DHT22;9657;45.940;12.840;2023-03-14T08:34:07;15.40;70.50
19050;DHT22;9657;45.940;12.840;2023-03-14T08:36:34;15.40;70.50
19050;DHT22;9657;45.940;12.840;2023-03-14T08:39:01;15.40;70.50
19050;DHT22;9657;45.940;12.840;2023-03-14T08:41:30;15.40;70.60
19050;DHT22;9657;45.940;12.840;2023-03-14T08:43:57;15.40;70.40
19050;DHT22;9657;45.940;12.840;2023-03-14T08:46:24;15.40;70.40
19050;DHT22;9657;45.940;12.840;2023-03-14T08:48:51;15.40;70.50
19050;DHT22;9657;45.940;12.840;2023-03-14T08:51:18;15.40;70.50
19050;DHT22;9657;45.940;12.840;2023-03-14T08:53:45;15.40;70.50
19050;DHT22;9657;45.940;12.840;2023-03-14T08:56:12;15.40;70.40
19050;DHT22;9657;45.940;12.840;2023-03-14T08:58:40;15.40;70.40
19050;DHT22;9657;45.940;12.840;2023-03-14T09:01:09;15.40;70.40
19050;DHT22;9657;45.940;12.840;2023-03-14T09:03:36;15.40;70.40
19050;DHT22;9657;45.940;12.840;2023-03-14T09:06:04;15.40;70.40
19050;DHT22;9657;45.940;12.840;2023-03-14T09:08:31;15.40;70.40
19050;DHT22;9657;45.940;12.840;2023-03-14T09:10:58;15.40;70.30
19050;DHT22;9657;45.940;12.840;2023-03-14T09:13:25;15.40;70.40
19050;DHT22;9657;45.940;12.840;2023-03-14T09:15:55;15.40;70.40
19050;DHT22;9657;45.940;12.840;2023-03-14T09:18:22;15.40;70.50
19050;DHT22;9657;45.940;12.840;2023-03-14T09:20:49;15.40;70.50
19050;DHT22;9657;45.940;12.840;2023-03-14T09:23:16;15.40;70.40
19050;DHT22;9657;45.940;12.840;2023-03-14T09:25:43;15.40;70.40
19050;DHT22;9657;45.940;12.840;2023-03-14T09:28:10;15.40;70.50
19050;DHT22;9657;45.940;12.840;2023-03-14T09:30:37;15.40;70.50
19050;DHT22;9657;45.940;12.840;2023-03-14T09:33:06;15.40;70.50
19050;DHT22;9657;45.940;12.840;2023-03-14T09:35:34;15.40;70.50
19050;DHT22;9657;45.940;12.840;2023-03-14T09:38:01;15.40;70.50
19050;DHT22;9657;45.940;12.840;2023-03-14T09:40:31;15.40;70.50
19050;DHT22;9657;45.940;12.840;2023-03-14T09:43:00;15.40;70.50
19050;DHT22;9657;45.940;12.840;2023-03-14T09:45:29;15.40;70.50
19050;DHT22;9657;45.940;12.840;2023-03-14T09:47:58;15.40;70.50
19050;DHT22;9657;45.940;12.840;2023-03-14T09:50:32;15.40;70.50
19050;DHT22;9657;45.940;12.840;2023-03-14T09:53:06;15.40;70.50
19050;DHT22;9657;45.940;12.840;2023-03-14T09:55:33;15.40;70.50
19050;DHT22;9657;45.940;12.840;2023-03-14T09:58:03;15.40;70.50
19050;DHT22;9657;45.940;12.840;2023-03-14T10:00:36;15.40;70.50
19050;DHT22;9657;45.940;12.840;2023-03-14T10:03:21;15.40;70.50
19050;DHT22;9657;45.940;12.840;2023-03-14T10:05:49;15.40;70.50
19050;DHT22;9657;45.940;12.840;2023-03-14T10:08:17;15.40;70.50
19050;DHT22;9657;45.940;12.840;2023-03-14T10:10:44;15.40;70.50
19050;DHT22;9657;45.940;12.840;2023-03-14T10:13:15;15.40;70.60
19050;DHT22;9657;45.940;12.840;2023-03-14T10:15:48;15.40;70.60
19050;DHT22;9657;45.940;12.840;2023-03-14T10:18:17;15.40;70.70
19050;DHT22;9657;45.940;12.840;2023-03-14T10:20:49;15.40;70.70
19050;DHT22;9657;45.940;12.840;2023-03-14T10:23:29;15.50;70.80
19050;DHT22;9657;45.940;12.840;2023-03-14T10:26:07;15.40;70.80
19050;DHT22;9657;45.940;12.840;2023-03-14T10:28:38;15.40;70.80
19050;DHT22;9657;45.940;12.840;2023-03-14T10:31:06;15.40;70.80
19050;DHT22;9657;45.940;12.840;2023-03-14T10:33:35;15.50;70.90
19050;DHT22;9657;45.940;12.840;2023-03-14T10:36:06;15.50;71.00
19050;DHT22;9657;45.940;12.840;2023-03-14T10:38:42;15.50;71.00
19050;DHT22;9657;45.940;12.840;2023-03-14T10:41:16;15.40;70.80
19050;DHT22;9657;45.940;12.840;2023-03-14T10:43:44;15.50;70.90
19050;DHT22;9657;45.940;12.840;2023-03-14T10:46:15;15.50;70.80
19050;DHT22;9657;45.940;12.840;2023-03-14T10:48:44;15.50;70.90
19050;DHT22;9657;45.940;12.840;2023-03-14T10:51:19;15.40;70.80
19050;DHT22;9657;45.940;12.840;2023-03-14T10:53:48;15.50;70.80
19050;DHT22;9657;45.940;12.840;2023-03-14T10:56:18;15.50;70.80
19050;DHT22;9657;45.940;12.840;2023-03-14T10:58:46;15.40;70.80
19050;DHT22;9657;45.940;12.840;2023-03-14T11:01:27;15.50;70.80
19050;DHT22;9657;45.940;12.840;2023-03-14T11:03:59;15.40;70.70
19050;DHT22;9657;45.940;12.840;2023-03-14T11:06:35;15.50;70.80
19050;DHT22;9657;45.940;12.840;2023-03-14T11:09:07;15.50;70.80
19050;DHT22;9657;45.940;12.840;2023-03-14T11:11:39;15.40;70.80
19050;DHT22;9657;45.940;12.840;2023-03-14T11:14:22;15.50;70.80
19050;DHT22;9657;45.940;12.840;2023-03-14T11:16:56;15.50;70.80
19050;DHT22;9657;45.940;12.840;2023-03-14T11:22:21;15.50;70.80
19050;DHT22;9657;45.940;12.840;2023-03-14T11:25:11;15.50;70.80
19050;DHT22;9657;45.940;12.840;2023-03-14T11:27:42;15.50;70.80
19050;DHT22;9657;45.940;12.840;2023-03-14T11:30:18;15.50;70.90
19050;DHT22;9657;45.940;12.840;2023-03-14T11:32:50;15.50;70.90
19050;DHT22;9657;45.940;12.840;2023-03-14T11:35:25;15.50;70.90
19050;DHT22;9657;45.940;12.840;2023-03-14T11:37:58;15.50;70.90
19050;DHT22;9657;45.940;12.840;2023-03-14T11:40:28;15.50;70.90
19050;DHT22;9657;45.940;12.840;2023-03-14T11:43:00;15.50;70.80
19050;DHT22;9657;45.940;12.840;2023-03-14T11:45:32;15.40;70.80
19050;DHT22;9657;45.940;12.840;2023-03-14T11:48:15;15.50;70.90
19050;DHT22;9657;45.940;12.840;2023-03-14T11:50:44;15.50;71.00
19050;DHT22;9657;45.940;12.840;2023-03-14T11:53:17;15.50;71.00
19050;DHT22;9657;45.940;12.840;2023-03-14T11:55:47;15.50;71.00
19050;DHT22;9657;45.940;12.840;2023-03-14T11:58:19;15.50;70.90
19050;DHT22;9657;45.940;12.840;2023-03-14T12:00:49;15.50;71.00
19050;DHT22;9657;45.940;12.840;2023-03-14T12:03:27;15.50;71.00
19050;DHT22;9657;45.940;12.840;2023-03-14T12:06:02;15.50;71.00
19050;DHT22;9657;45.940;12.840;2023-03-14T12:08:42;15.50;71.00
19050;DHT22;9657;45.940;12.840;2023-03-14T12:11:13;15.50;71.10
19050;DHT22;9657;45.940;12.840;2023-03-14T12:13:46;15.50;71.00
19050;DHT22;9657;45.940;12.840;2023-03-14T12:16:33;15.50;71.00
19050;DHT22;9657;45.940;12.840;2023-03-14T12:22:12;15.50;71.10
19050;DHT22;9657;45.940;12.840;2023-03-14T12:24:47;15.50;71.10
19050;DHT22;9657;45.940;12.840;2023-03-14T12:27:47;15.50;71.10
19050;DHT22;9657;45.940;12.840;2023-03-14T12:30:26;15.50;71.20
19050;DHT22;9657;45.940;12.840;2023-03-14T12:33:20;15.50;71.20
19050;DHT22;9657;45.940;12.840;2023-03-14T12:35:49;15.50;71.30
19050;DHT22;9657;45.940;12.840;2023-03-14T12:38:23;15.50;71.30
19050;DHT22;9657;45.940;12.840;2023-03-14T12:40:59;15.50;71.30
19050;DHT22;9657;45.940;12.840;2023-03-14T12:43:30;15.50;71.30
19050;DHT22;9657;45.940;12.840;2023-03-14T12:46:15;15.50;71.30
19050;DHT22;9657;45.940;12.840;2023-03-14T12:48:46;15.50;71.40
19050;DHT22;9657;45.940;12.840;2023-03-14T12:51:15;15.50;71.50
19050;DHT22;9657;45.940;12.840;2023-03-14T12:53:53;15.50;71.50
19050;DHT22;9657;45.940;12.840;2023-03-14T12:56:36;15.50;71.60
19050;DHT22;9657;45.940;12.840;2023-03-14T12:59:36;15.50;71.60
19050;DHT22;9657;45.940;12.840;2023-03-14T13:02:21;15.50;71.70
19050;DHT22;9657;45.940;12.840;2023-03-14T13:04:51;15.50;71.70
19050;DHT22;9657;45.940;12.840;2023-03-14T13:07:31;15.50;71.70
19050;DHT22;9657;45.940;12.840;2023-03-14T13:10:13;15.50;71.70
19050;DHT22;9657;45.940;12.840;2023-03-14T13:12:48;15.50;71.80
19050;DHT22;9657;45.940;12.840;2023-03-14T13:15:25;15.50;71.80
19050;DHT22;9657;45.940;12.840;2023-03-14T13:17:56;15.50;71.80
19050;DHT22;9657;45.940;12.840;2023-03-14T13:20:30;15.50;71.80
19050;DHT22;9657;45.940;12.840;2023-03-14T13:22:57;15.50;71.80
19050;DHT22;9657;45.940;12.840;2023-03-14T13:25:29;15.50;71.80
19050;DHT22;9657;45.940;12.840;2023-03-14T13:27:58;15.50;71.80
19050;DHT22;9657;45.940;12.840;2023-03-14T13:30:27;15.50;71.90
19050;DHT22;9657;45.940;12.840;2023-03-14T13:32:55;15.50;71.90
19050;DHT22;9657;45.940;12.840;2023-03-14T13:35:24;15.50;71.90
19050;DHT22;9657;45.940;12.840;2023-03-14T13:37:56;15.50;72.00
19050;DHT22;9657;45.940;12.840;2023-03-14T13:40:30;15.50;72.00
19050;DHT22;9657;45.940;12.840;2023-03-14T13:43:13;15.50;72.00
19050;DHT22;9657;45.940;12.840;2023-03-14T13:45:46;15.50;72.00
19050;DHT22;9657;45.940;12.840;2023-03-14T13:48:15;15.50;72.00
19050;DHT22;9657;45.940;12.840;2023-03-14T13:50:49;15.50;71.90
19050;DHT22;9657;45.940;12.840;2023-03-14T13:53:16;15.50;71.90
19050;DHT22;9657;45.940;12.840;2023-03-14T13:55:44;15.50;71.90
19050;DHT22;9657;45.940;12.840;2023-03-14T13:58:20;15.50;71.90
19050;DHT22;9657;45.940;12.840;2023-03-14T14:00:57;15.50;71.90
19050;DHT22;9657;45.940;12.840;2023-03-14T14:03:25;15.50;71.80
19050;DHT22;9657;45.940;12.840;2023-03-14T14:05:55;15.50;71.80
19050;DHT22;9657;45.940;12.840;2023-03-14T14:08:22;15.50;71.90
19050;DHT22;9657;45.940;12.840;2023-03-14T14:10:50;15.50;71.80
19050;DHT22;9657;45.940;12.840;2023-03-14T14:13:22;15.50;71.80
19050;DHT22;9657;45.940;12.840;2023-03-14T14:15:52;15.50;71.90
19050;DHT22;9657;45.940;12.840;2023-03-14T14:18:22;15.50;72.00
19050;DHT22;9657;45.940;12.840;2023-03-14T14:20:51;15.50;71.80
19050;DHT22;9657;45.940;12.840;2023-03-14T14:23:20;15.50;71.80
19050;DHT22;9657;45.940;12.840;2023-03-14T14:25:51;15.50;71.80
19050;DHT22;9657;45.940;12.840;2023-03-14T14:28:26;15.50;71.90
19050;DHT22;9657;45.940;12.840;2023-03-14T14:31:06;15.50;71.90
19050;DHT22;9657;45.940;12.840;2023-03-14T14:33:44;15.50;71.90
19050;DHT22;9657;45.940;12.840;2023-03-14T14:36:18;15.50;71.90
19050;DHT22;9657;45.940;12.840;2023-03-14T14:38:58;15.50;71.90
19050;DHT22;9657;45.940;12.840;2023-03-14T14:41:33;15.50;72.00
19050;DHT22;9657;45.940;12.840;2023-03-14T14:44:04;15.50;72.00
19050;DHT22;9657;45.940;12.840;2023-03-14T14:46:33;15.60;72.10
19050;DHT22;9657;45.940;12.840;2023-03-14T14:49:04;15.50;72.10
19050;DHT22;9657;45.940;12.840;2023-03-14T14:51:34;15.50;72.00
19050;DHT22;9657;45.940;12.840;2023-03-14T14:54:12;15.50;72.00
19050;DHT22;9657;45.940;12.840;2023-03-14T14:56:39;15.50;72.10
19050;DHT22;9657;45.940;12.840;2023-03-14T14:59:20;15.60;72.10
19050;DHT22;9657;45.940;12.840;2023-03-14T15:01:48;15.60;72.00
19050;DHT22;9657;45.940;12.840;2023-03-14T15:04:16;15.60;72.00
19050;DHT22;9657;45.940;12.840;2023-03-14T15:06:46;15.50;71.90
19050;DHT22;9657;45.940;12.840;2023-03-14T15:09:14;15.60;72.00
19050;DHT22;9657;45.940;12.840;2023-03-14T15:11:42;15.60;72.00
19050;DHT22;9657;45.940;12.840;2023-03-14T15:14:11;15.60;72.00
19050;DHT22;9657;45.940;12.840;2023-03-14T15:16:38;15.60;72.00
19050;DHT22;9657;45.940;12.840;2023-03-14T15:19:11;15.60;72.00
19050;DHT22;9657;45.940;12.840;2023-03-14T15:21:38;15.60;71.90
19050;DHT22;9657;45.940;12.840;2023-03-14T15:24:08;15.60;71.90
19050;DHT22;9657;45.940;12.840;2023-03-14T15:26:35;15.60;71.90
19050;DHT22;9657;45.940;12.840;2023-03-14T15:29:02;15.60;72.00
19050;DHT22;9657;45.940;12.840;2023-03-14T15:31:31;15.60;72.20
19050;DHT22;9657;45.940;12.840;2023-03-14T15:33:58;15.60;72.30
19050;DHT22;9657;45.940;12.840;2023-03-14T15:36:27;15.60;72.20
19050;DHT22;9657;45.940;12.840;2023-03-14T15:38:55;15.60;72.40
19050;DHT22;9657;45.940;12.840;2023-03-14T15:41:23;15.60;72.40
19050;DHT22;9657;45.940;12.840;2023-03-14T15:43:50;15.60;72.40
19050;DHT22;9657;45.940;12.840;2023-03-14T15:46:17;15.60;72.40
19050;DHT22;9657;45.940;12.840;2023-03-14T15:48:46;15.60;72.40
19050;DHT22;9657;45.940;12.840;2023-03-14T15:51:14;15.60;72.40
19050;DHT22;9657;45.940;12.840;2023-03-14T15:53:41;15.60;72.50